createdAt,value
2018-10-02T00:04:56.459Z,5.30
2018-10-02T00:09:59.981Z,5.40
2018-10-02T00:15:03.839Z,5.60
2018-10-02T00:20:08.265Z,5.70
2018-10-02T00:25:12.834Z,5.70
2018-10-02T00:30:16.507Z,5.60
2018-10-02T00:35:20.017Z,5.40
2018-10-02T00:40:23.552Z,5.30
2018-10-02T00:45:27.322Z,5.10
2018-10-02T00:50:31.159Z,5.00
2018-10-02T00:55:35.368Z,4.90
2018-10-02T01:00:39.858Z,4.80
2018-10-02T01:05:43.354Z,4.70
2018-10-02T01:10:46.832Z,4.70
2018-10-02T01:15:50.505Z,5.00
2018-10-02T01:20:54.022Z,5.20
2018-10-02T01:25:57.510Z,5.40
2018-10-02T01:31:01.229Z,5.50
2018-10-02T01:36:06.290Z,5.50
2018-10-02T01:41:09.817Z,5.50
2018-10-02T01:46:13.261Z,5.40
2018-10-02T01:51:16.733Z,5.40
2018-10-02T01:56:20.261Z,5.40
2018-10-02T02:01:25.080Z,5.30
2018-10-02T02:06:28.808Z,5.20
2018-10-02T02:11:32.746Z,5.00
2018-10-02T02:16:36.538Z,4.90
2018-10-02T02:21:40.040Z,4.90
2018-10-02T02:26:43.478Z,5.00
2018-10-02T02:31:47.090Z,4.90
2018-10-02T02:36:50.580Z,4.80
2018-10-02T02:41:54.996Z,4.60
2018-10-02T02:47:04.393Z,4.60
2018-10-02T02:52:08.202Z,4.60
2018-10-02T02:57:12.454Z,4.70
2018-10-02T03:02:16.024Z,4.70
2018-10-02T03:07:19.826Z,4.60
2018-10-02T03:12:23.367Z,4.50
2018-10-02T03:17:27.474Z,4.30
2018-10-02T03:22:31.110Z,4.20
2018-10-02T03:27:35.736Z,4.00
2018-10-02T03:32:39.315Z,3.80
2018-10-02T03:37:43.075Z,3.60
2018-10-02T03:42:46.995Z,3.30
2018-10-02T03:47:50.514Z,3.30
2018-10-02T03:52:54.440Z,3.10
2018-10-02T03:57:58.072Z,3.00
2018-10-02T04:03:02.913Z,2.90
2018-10-02T04:08:06.496Z,2.70
2018-10-02T04:13:10.058Z,2.60
2018-10-02T04:18:13.674Z,2.60
2018-10-02T04:23:17.210Z,2.60
2018-10-02T04:28:20.968Z,2.60
2018-10-02T04:33:24.852Z,2.50
2018-10-02T04:38:28.540Z,2.50
2018-10-02T04:43:33.065Z,2.40
2018-10-02T04:48:36.521Z,2.40
2018-10-02T04:53:40.026Z,2.30
2018-10-02T04:58:43.560Z,2.30
2018-10-02T05:03:47.234Z,2.30
2018-10-02T05:08:51.622Z,2.40
2018-10-02T05:13:55.371Z,2.50
2018-10-02T05:18:59.594Z,2.70
2018-10-02T05:24:04.365Z,2.90
2018-10-02T05:29:07.977Z,3.00
2018-10-02T05:34:11.758Z,3.30
2018-10-02T05:39:15.611Z,3.50
2018-10-02T05:44:19.779Z,3.60
2018-10-02T05:49:23.827Z,3.60
2018-10-02T05:54:27.340Z,3.60
2018-10-02T05:59:31.011Z,3.60
2018-10-02T06:04:35.242Z,3.50
2018-10-02T06:09:38.730Z,3.60
2018-10-02T06:14:42.376Z,3.60
2018-10-02T06:19:45.944Z,4.00
2018-10-02T06:24:49.844Z,4.40
2018-10-02T06:29:53.528Z,5.30
2018-10-02T06:34:57.404Z,6.20
2018-10-02T06:40:01.238Z,7.50
2018-10-02T06:45:07.019Z,9.60
2018-10-02T06:50:10.882Z,9.90
2018-10-02T06:55:15.521Z,8.70
2018-10-02T07:00:18.997Z,7.50
2018-10-02T07:05:22.552Z,6.70
2018-10-02T07:10:26.489Z,6.30
2018-10-02T07:15:30.369Z,6.30
2018-10-02T07:20:34.692Z,6.50
2018-10-02T07:25:38.207Z,6.80
2018-10-02T07:30:42.091Z,7.20
2018-10-02T07:35:45.565Z,7.90
2018-10-02T07:40:49.126Z,8.50
2018-10-02T07:45:52.572Z,8.80
2018-10-02T07:50:56.244Z,8.70
2018-10-02T07:55:59.843Z,8.80
2018-10-02T08:01:03.428Z,9.40
2018-10-02T08:06:09.791Z,9.90
2018-10-02T08:11:23.023Z,9.80
2018-10-02T08:16:26.538Z,9.60
2018-10-02T08:21:30.082Z,10.10
2018-10-02T08:26:33.841Z,10.50
2018-10-02T08:31:37.326Z,11.20
2018-10-02T08:36:40.859Z,11.40
2018-10-02T08:41:44.518Z,11.60
2018-10-02T08:46:48.288Z,12.30
2018-10-02T08:51:51.992Z,15.50
2018-10-02T08:56:55.496Z,18.50
2018-10-02T09:01:58.947Z,17.40
2018-10-02T09:07:02.535Z,15.70
2018-10-02T09:12:06.045Z,16.20
2018-10-02T09:17:09.619Z,16.80
2018-10-02T09:22:13.734Z,16.20
2018-10-02T09:27:17.245Z,15.20
2018-10-02T09:32:26.531Z,15.30
2018-10-02T09:37:35.255Z,15.80
2018-10-02T09:42:44.158Z,15.30
2018-10-02T09:47:47.841Z,14.40
2018-10-02T09:52:51.764Z,14.30
2018-10-02T09:57:55.462Z,14.60
2018-10-02T10:02:58.997Z,14.80
2018-10-02T10:08:02.902Z,15.10
2018-10-02T10:13:06.439Z,15.10
2018-10-02T10:18:09.988Z,15.10
2018-10-02T10:23:13.680Z,14.80
2018-10-02T10:28:17.296Z,13.60
2018-10-02T10:33:21.154Z,12.90
2018-10-02T10:38:24.807Z,13.00
2018-10-02T10:43:28.625Z,13.10
2018-10-02T10:48:32.216Z,13.70
2018-10-02T10:53:35.756Z,14.00
2018-10-02T10:58:39.321Z,14.40
2018-10-02T11:03:42.890Z,14.40
2018-10-02T11:08:46.477Z,14.30
2018-10-02T11:13:50.244Z,14.10
2018-10-02T11:18:54.547Z,14.20
2018-10-02T11:23:58.249Z,14.10
2018-10-02T11:29:01.991Z,14.20
2018-10-02T11:34:05.504Z,14.20
2018-10-02T11:39:09.082Z,14.00
2018-10-02T11:44:13.017Z,13.80
2018-10-02T11:49:16.576Z,14.10
2018-10-02T11:54:20.269Z,14.50
2018-10-02T11:59:24.090Z,15.10
2018-10-02T12:04:27.612Z,15.20
2018-10-02T12:09:31.176Z,15.40
2018-10-02T12:14:34.659Z,15.40
2018-10-02T12:19:38.257Z,15.80
2018-10-02T12:24:41.661Z,15.80
2018-10-02T12:29:45.254Z,15.50
2018-10-02T12:34:48.798Z,15.40
2018-10-02T12:39:52.591Z,15.30
2018-10-02T12:44:56.328Z,15.10
2018-10-02T12:50:00.060Z,14.90
2018-10-02T12:55:03.818Z,14.70
2018-10-02T13:00:07.632Z,14.60
2018-10-02T13:05:11.146Z,14.20
2018-10-02T13:10:14.739Z,13.80
2018-10-02T13:15:18.229Z,13.60
2018-10-02T13:20:21.734Z,13.40
2018-10-02T13:25:25.659Z,13.20
2018-10-02T13:30:29.969Z,13.10
2018-10-02T13:35:33.743Z,12.90
2018-10-02T13:40:37.478Z,12.80
2018-10-02T13:45:41.042Z,12.80
2018-10-02T13:50:44.856Z,13.00
2018-10-02T13:55:48.534Z,12.80
2018-10-02T14:00:52.287Z,12.70
2018-10-02T14:05:56.816Z,12.40
2018-10-02T14:11:00.936Z,12.60
2018-10-02T14:16:04.437Z,12.60
2018-10-02T14:21:08.615Z,12.40
2018-10-02T14:26:12.184Z,12.20
2018-10-02T14:31:16.074Z,11.80
2018-10-02T14:36:19.809Z,11.40
2018-10-02T14:41:23.950Z,11.30
2018-10-02T14:46:28.112Z,11.20
2018-10-02T14:51:31.944Z,11.20
2018-10-02T14:56:35.573Z,11.10
2018-10-02T15:01:39.099Z,11.10
2018-10-02T15:06:42.674Z,11.00
2018-10-02T15:11:46.488Z,10.90
2018-10-02T15:16:51.244Z,11.00
2018-10-02T15:21:55.367Z,10.90
2018-10-02T15:26:59.323Z,10.90
2018-10-02T15:32:03.161Z,11.10
2018-10-02T15:37:07.241Z,11.00
2018-10-02T15:42:13.697Z,11.10
2018-10-02T15:47:17.366Z,11.10
2018-10-02T15:52:21.281Z,11.10
2018-10-02T15:57:25.180Z,11.00
2018-10-02T16:02:29.227Z,10.90
2018-10-02T16:07:33.759Z,10.70
2018-10-02T16:12:37.477Z,10.70
2018-10-02T16:17:41.996Z,10.60
2018-10-02T16:22:46.356Z,10.70
2018-10-02T16:27:50.413Z,10.70
2018-10-02T16:32:54.333Z,10.70
2018-10-02T16:37:58.149Z,10.70
2018-10-02T16:43:01.669Z,10.80
2018-10-02T16:48:05.965Z,10.70
2018-10-02T16:53:09.985Z,10.60
2018-10-02T16:58:49.529Z,10.60
2018-10-02T17:03:53.142Z,10.50
2018-10-02T17:08:56.605Z,10.50
2018-10-02T17:14:00.386Z,10.50
2018-10-02T17:19:03.997Z,10.40
2018-10-02T17:24:07.541Z,10.40
2018-10-02T17:29:11.115Z,10.40
2018-10-02T17:34:15.090Z,10.40
2018-10-02T17:39:19.027Z,10.30
2018-10-02T17:44:22.735Z,10.30
2018-10-02T17:49:26.241Z,10.20
2018-10-02T17:54:29.790Z,10.20
2018-10-02T17:59:33.338Z,10.30
2018-10-02T18:04:36.874Z,10.20
2018-10-02T18:15:18.993Z,10.10
2018-10-02T18:20:22.887Z,10.10
2018-10-02T18:25:26.426Z,10.00
2018-10-02T18:30:29.943Z,10.00
2018-10-02T18:35:33.655Z,10.00
2018-10-02T18:40:37.255Z,9.90
2018-10-02T18:45:40.959Z,9.90
2018-10-02T18:50:45.141Z,9.90
2018-10-02T18:55:49.220Z,9.90
2018-10-02T19:00:53.218Z,9.90
2018-10-02T19:05:57.496Z,9.90
2018-10-02T19:11:06.489Z,9.80
2018-10-02T19:16:26.024Z,9.80
2018-10-02T19:21:30.129Z,9.80
2018-10-02T19:26:33.886Z,9.70
2018-10-02T19:31:43.174Z,9.70
2018-10-02T19:36:47.121Z,9.70
2018-10-02T19:41:51.497Z,9.70
2018-10-02T19:46:56.453Z,9.70
2018-10-02T19:52:06.625Z,9.60
2018-10-02T19:57:12.145Z,9.60
2018-10-02T20:02:16.063Z,9.70
2018-10-02T20:07:19.717Z,9.70
2018-10-02T20:12:23.465Z,9.60
2018-10-02T20:17:27.196Z,9.60
2018-10-02T20:22:31.231Z,9.60
2018-10-02T20:27:35.874Z,9.60
2018-10-02T20:32:40.258Z,9.50
2018-10-02T20:37:45.034Z,9.20
2018-10-02T20:42:49.215Z,8.90
2018-10-02T20:47:53.279Z,8.80
2018-10-02T20:53:01.300Z,8.70
2018-10-02T20:58:09.877Z,8.70
2018-10-02T21:03:18.117Z,8.70
2018-10-02T21:08:22.837Z,8.90
2018-10-02T21:13:26.638Z,9.10
2018-10-02T21:18:30.260Z,9.20
2018-10-02T21:23:33.770Z,9.20
2018-10-02T21:28:37.434Z,9.20
2018-10-02T21:33:41.845Z,9.20
2018-10-02T21:38:45.508Z,9.40
2018-10-02T21:43:49.653Z,9.40
2018-10-02T21:48:53.488Z,9.40
2018-10-02T21:53:57.393Z,9.30
2018-10-02T21:59:01.476Z,9.10
2018-10-02T22:04:05.160Z,9.00
2018-10-02T22:09:10.060Z,8.80
2018-10-02T22:14:14.369Z,8.90
2018-10-02T22:19:18.285Z,8.90
2018-10-02T22:24:22.996Z,9.10
2018-10-02T22:29:26.693Z,9.20
2018-10-02T22:34:30.639Z,9.20
2018-10-02T22:39:34.206Z,9.30
2018-10-02T22:44:38.017Z,9.40
2018-10-02T22:49:42.041Z,9.50
2018-10-02T22:54:46.455Z,9.50
2018-10-02T22:59:50.425Z,9.40
2018-10-02T23:04:56.252Z,9.40
2018-10-02T23:09:59.922Z,9.50
2018-10-02T23:15:03.565Z,9.60
2018-10-02T23:20:07.220Z,9.60
2018-10-02T23:25:10.777Z,9.70
2018-10-02T23:30:14.426Z,9.60
2018-10-02T23:35:17.990Z,9.60
2018-10-02T23:40:21.820Z,9.50
2018-10-02T23:45:25.660Z,9.50
2018-10-02T23:50:29.810Z,9.40
2018-10-02T23:55:34.199Z,9.40
